Portales, NM (88130)

4:21 PM MDT on October 22, 2014 (GMT -0600)
S of ENMU | Change Station
CLOSE
Current Station
Personal Weather Station
Location: Portales, NM
Elevation: 4078 ft
Nearby Weather Stations

Elev 4078 ft 34.17 °N, 103.35 °W | Updated 11 seconds ago

Clear
Clear
78.1 °F
Feels Like 79 °F
N
4.0
Wind Variable Wind from NNW
Gusts 6.9 mph

Today
High -- | Low -- °F
--% Chance of Precip.
Yesterday
High -- | Low -- °F
Precip. -- in
7:04 AM 6:10 PM
Waning Crescent, 1% visible
Pressure 29.93 in
Visibility 10.0 miles
Clouds Few 4900 ft
Heat Index 79 °F
Dew Point 57 °F
Humidity 49%
Rainfall 0.00 in
Snow Depth Not available.
UV 2 out of 12
Pollen 4.10 out of 12
Air Quality Not available.
Flu Activity Sporadic
METAR KCVS 222158Z AUTO 24009KT 10SM FEW049 23/11 A3007 RMK AO2 SLP135 T02290109 $

More Conditions Fewer Conditions

Pressure 29.93 in
Visibility 10.0 miles
Clouds Few 4900 ft
Heat Index 79 °F
Dew Point 57 °F
Humidity 49%
Rainfall 0.00 in
Snow Depth Not available.
UV 2 out of 12
Pollen 4.10 out of 12
Air Quality Not available.
Flu Activity Sporadic
METAR KCVS 222158Z AUTO 24009KT 10SM FEW049 23/11 A3007 RMK AO2 SLP135 T02290109 $

More Conditions Fewer Conditions

10-Day Weather Forecast

Almanac

Astronomy

Oct. 22, 2014 Rise Set
Actual Time 7:04 AM MDT 6:10 PM MDT
Civil Twilight 6:38 AM MDT 6:36 PM MDT
Nautical Twilight 6:09 AM MDT 7:05 PM MDT
Astronomical Twilight 5:40 AM MDT 7:34 PM MDT
Moon 5:51 AM MDT 5:36 PM MDT
Length of Visible Light 11h 57m
Length of Day
11h 06m
Tomorrow will be 1m 58s shorter.
Waning Crescent, 1% of the Moon is Illuminated
Today
Waning Crescent
Oct 23
New
Oct 30
First Quarter
Nov 6
Full
Nov 14
Last Quarter

Today's Extremes

State Highs State Lows

Community

WunderPhotos

Upload Photos

1,764,064 photos uploaded!

WunderBlogs® & News

Nearby

Snow Depth

Station Depth Elevation
Wesner Springs 2 in 11120 ft
Elk Cabin 1 in 8210 ft
Gallegos Peak 0 in 9800 ft
North Costilla 0 in 10600 ft
Senorita Divide #2 0 in 8600 ft

Earthquake Activity

City Distance Mag. Time & Date
No recent earthquake activity has been reported nearby.
Minimum magnitude displayed is 2.5.

Coastal Water Temperatures

Place Temperature
No Stations Reporting

Nearby Weather Stations